Time;durP1;ratioP1;P1;durP2;ratioP2;P2;SDS_P1;SDS_P2;PMS_P1;PMS_P2;Temp;Humidity;BMP_temperature;BMP_pressure;BME280_temperature;BME280_humidity;BME280_pressure;Samples;Min_cycle;Max_cycle;Signal;HPM_P1;HPM_P2
2023/05/10 00:01:01;;;;;;;13.88;7.90;;;;;;;;;;5051074;28;20033;-63
2023/05/10 00:03:26;;;;;;;11.85;7.18;;;;;;;;;;5051725;28;20099;-65
2023/05/10 00:05:52;;;;;;;13.60;7.10;;;;;;;;;;5051492;28;20040;-66
2023/05/10 00:08:17;;;;;;;10.55;5.68;;;;;;;;;;5055124;28;20500;-65
2023/05/10 00:10:43;;;;;;;8.50;4.93;;;;;;;;;;5062328;28;20036;-65
2023/05/10 00:13:08;;;;;;;7.65;4.30;;;;;;;;;;5062430;28;20024;-64
2023/05/10 00:15:34;;;;;;;8.68;4.80;;;;;;;;;;5060052;28;20021;-65
2023/05/10 00:18:00;;;;;;;9.48;5.10;;;;;;;;;;5057315;28;20029;-64
2023/05/10 00:20:25;;;;;;;10.73;5.35;;;;;;;;;;5069836;28;20067;-65
2023/05/10 00:22:51;;;;;;;14.52;5.80;;;;;;;;;;5058775;28;20163;-64
2023/05/10 00:25:16;;;;;;;10.52;5.13;;;;;;;;;;5053677;28;20112;-64
2023/05/10 00:27:42;;;;;;;10.20;5.03;;;;;;;;;;5065499;28;20028;-64
2023/05/10 00:30:08;;;;;;;12.85;5.97;;;;;;;;;;5070534;28;20473;-64
2023/05/10 00:32:33;;;;;;;11.80;5.50;;;;;;;;;;5068367;28;20474;-64
2023/05/10 00:34:58;;;;;;;14.98;5.93;;;;;;;;;;5051566;28;20037;-63
2023/05/10 00:37:24;;;;;;;13.40;5.75;;;;;;;;;;5056475;28;20037;-64
2023/05/10 00:39:49;;;;;;;13.85;6.22;;;;;;;;;;5059557;28;20116;-64
2023/05/10 00:42:15;;;;;;;12.65;5.78;;;;;;;;;;5048760;28;20037;-65
2023/05/10 00:44:40;;;;;;;12.25;5.78;;;;;;;;;;5060577;28;20556;-65
2023/05/10 00:47:06;;;;;;;11.73;5.93;;;;;;;;;;5051531;28;20064;-64
2023/05/10 00:49:32;;;;;;;12.38;5.72;;;;;;;;;;5068092;28;20032;-64
2023/05/10 00:51:58;;;;;;;14.43;6.68;;;;;;;;;;5069466;28;20039;-63
2023/05/10 00:54:23;;;;;;;12.27;6.07;;;;;;;;;;5055337;28;20032;-65
2023/05/10 00:56:49;;;;;;;15.68;7.00;;;;;;;;;;5063576;28;20048;-64
2023/05/10 00:59:18;;;;;;;15.88;7.15;;;;;;;;;;5049133;28;20470;-66
2023/05/10 01:01:47;;;;;;;14.80;7.53;;;;;;;;;;5054201;28;20091;-64
2023/05/10 01:04:13;;;;;;;16.55;7.97;;;;;;;;;;5063859;28;20029;-65
2023/05/10 01:06:40;;;;;;;14.52;7.55;;;;;;;;;;5071184;28;20021;-65
2023/05/10 01:12:52;;;;;;;15.43;7.38;;;;;;;;;;5057523;28;20078;-65
2023/05/10 01:15:18;;;;;;;15.95;7.10;;;;;;;;;;5053479;28;20032;-66
2023/05/10 01:17:46;;;;;;;14.48;7.05;;;;;;;;;;5067492;28;20249;-65
2023/05/10 01:20:12;;;;;;;12.75;6.05;;;;;;;;;;5054750;28;20044;-64
2023/05/10 01:22:52;;;;;;;12.75;6.05;;;;;;;;;;5058378;28;20035;-65
2023/05/10 01:25:33;;;;;;;13.50;4.70;;;;;;;;;;5073454;28;20081;-64
2023/05/10 01:28:28;;;;;;;13.25;6.10;;;;;;;;;;5074730;28;20037;-64
2023/05/10 01:31:34;;;;;;;12.65;5.70;;;;;;;;;;5065442;28;20119;-64
2023/05/10 01:34:16;;;;;;;12.23;6.00;;;;;;;;;;5063040;28;20040;-64
2023/05/10 01:36:50;;;;;;;14.48;6.68;;;;;;;;;;5063311;28;20450;-64
2023/05/10 01:39:22;;;;;;;10.82;5.13;;;;;;;;;;5050754;28;20075;-63
2023/05/10 01:41:59;;;;;;;11.55;5.00;;;;;;;;;;5052991;28;20036;-64
2023/05/10 01:44:35;;;;;;;9.77;4.68;;;;;;;;;;5069227;28;20029;-65
2023/05/10 01:47:08;;;;;;;7.28;3.65;;;;;;;;;;5053293;28;20082;-64
2023/05/10 01:49:40;;;;;;;6.75;3.53;;;;;;;;;;5072526;28;20029;-65
2023/05/10 01:52:13;;;;;;;6.60;3.20;;;;;;;;;;5055136;28;20629;-64
2023/05/10 01:54:44;;;;;;;7.30;3.85;;;;;;;;;;5052001;28;20522;-63
2023/05/10 01:57:13;;;;;;;12.38;4.32;;;;;;;;;;5051906;28;20076;-63
2023/05/10 01:59:43;;;;;;;8.15;4.00;;;;;;;;;;5055610;28;20230;-64
2023/05/10 02:02:13;;;;;;;8.45;3.58;;;;;;;;;;5057496;28;20112;-63
2023/05/10 02:04:40;;;;;;;7.40;3.80;;;;;;;;;;5052236;28;20029;-63
2023/05/10 02:07:07;;;;;;;8.45;3.50;;;;;;;;;;5053176;28;20033;-63
2023/05/10 02:09:34;;;;;;;6.57;3.25;;;;;;;;;;5052931;28;20071;-63
2023/05/10 02:12:02;;;;;;;7.55;3.40;;;;;;;;;;5057074;28;20032;-63
2023/05/10 02:14:30;;;;;;;6.53;3.55;;;;;;;;;;5053625;28;20117;-63
2023/05/10 02:16:57;;;;;;;6.93;3.28;;;;;;;;;;5064759;28;20032;-64
2023/05/10 02:19:24;;;;;;;6.75;3.38;;;;;;;;;;5070136;28;20051;-65
2023/05/10 02:21:51;;;;;;;7.30;3.42;;;;;;;;;;5054098;28;20105;-63
2023/05/10 02:24:18;;;;;;;6.15;3.03;;;;;;;;;;5061274;28;20039;-63
2023/05/10 02:26:45;;;;;;;7.22;3.60;;;;;;;;;;5051303;28;20037;-63
2023/05/10 02:29:12;;;;;;;5.82;3.10;;;;;;;;;;5052431;28;20025;-63
2023/05/10 02:31:38;;;;;;;6.63;3.60;;;;;;;;;;5053013;28;20041;-63
2023/05/10 02:34:06;;;;;;;7.90;3.58;;;;;;;;;;5052508;28;20033;-64
2023/05/10 02:36:32;;;;;;;8.32;3.45;;;;;;;;;;5058421;28;20033;-64
2023/05/10 02:39:01;;;;;;;9.27;3.70;;;;;;;;;;5068369;28;20048;-64
2023/05/10 02:41:28;;;;;;;6.25;3.40;;;;;;;;;;5058156;28;20068;-63
2023/05/10 02:43:57;;;;;;;7.22;3.63;;;;;;;;;;5052327;28;20488;-63
2023/05/10 02:46:23;;;;;;;8.20;3.47;;;;;;;;;;5062491;28;20476;-63
2023/05/10 02:48:48;;;;;;;8.27;3.60;;;;;;;;;;5052578;28;20548;-64
2023/05/10 02:51:17;;;;;;;7.90;3.70;;;;;;;;;;5053062;28;20044;-63
2023/05/10 02:53:44;;;;;;;6.95;3.15;;;;;;;;;;5052297;28;20108;-63
2023/05/10 02:56:15;;;;;;;7.80;3.70;;;;;;;;;;5056975;28;20055;-63
2023/05/10 02:58:40;;;;;;;10.65;3.70;;;;;;;;;;5056345;28;20045;-64
2023/05/10 03:01:07;;;;;;;9.95;3.72;;;;;;;;;;5053461;28;20090;-63
2023/05/10 03:03:33;;;;;;;12.68;4.57;;;;;;;;;;5070455;28;20040;-63
2023/05/10 03:05:58;;;;;;;8.65;4.38;;;;;;;;;;5072766;28;20037;-63
2023/05/10 03:08:24;;;;;;;10.50;4.90;;;;;;;;;;5067623;28;20033;-63
2023/05/10 03:11:06;;;;;;;11.70;5.20;;;;;;;;;;5064834;28;20055;-63
2023/05/10 03:14:06;;;;;;;11.48;5.43;;;;;;;;;;5056333;28;20028;-65
2023/05/10 03:16:46;;;;;;;13.80;5.53;;;;;;;;;;5057176;28;20036;-64
2023/05/10 03:19:19;;;;;;;15.00;6.67;;;;;;;;;;5055507;28;20037;-63
2023/05/10 03:21:51;;;;;;;14.50;6.30;;;;;;;;;;5054998;28;20025;-64
2023/05/10 03:24:18;;;;;;;17.25;6.70;;;;;;;;;;5049921;28;20065;-64
2023/05/10 03:26:45;;;;;;;17.13;7.15;;;;;;;;;;5054607;28;20032;-64
2023/05/10 03:29:14;;;;;;;18.85;7.78;;;;;;;;;;5061149;28;20033;-64
2023/05/10 03:31:39;;;;;;;19.67;7.90;;;;;;;;;;5068606;28;20037;-64
2023/05/10 03:34:06;;;;;;;20.83;8.50;;;;;;;;;;5064753;28;20127;-69
2023/05/10 03:36:31;;;;;;;23.85;9.10;;;;;;;;;;5065618;28;20036;-65
2023/05/10 03:38:56;;;;;;;22.60;9.90;;;;;;;;;;5067880;28;20053;-66
2023/05/10 03:41:22;;;;;;;26.65;10.10;;;;;;;;;;5063977;28;20032;-66
2023/05/10 03:43:47;;;;;;;28.17;10.57;;;;;;;;;;5051921;28;20117;-66
2023/05/10 03:46:12;;;;;;;24.15;9.57;;;;;;;;;;5050748;28;20029;-65
2023/05/10 03:48:38;;;;;;;31.38;11.80;;;;;;;;;;5068740;28;20028;-66
2023/05/10 03:51:03;;;;;;;31.67;12.27;;;;;;;;;;5054140;28;20371;-67
2023/05/10 03:53:29;;;;;;;37.58;13.20;;;;;;;;;;5050894;28;20508;-66
2023/05/10 03:55:54;;;;;;;35.42;13.80;;;;;;;;;;5051846;28;20025;-66
2023/05/10 03:58:19;;;;;;;43.53;15.68;;;;;;;;;;5050964;28;20385;-67
2023/05/10 04:00:45;;;;;;;42.65;15.52;;;;;;;;;;5062743;28;20536;-67
2023/05/10 04:03:13;;;;;;;43.25;15.85;;;;;;;;;;5071957;28;20465;-67
2023/05/10 04:05:39;;;;;;;48.97;17.13;;;;;;;;;;5058429;28;20032;-66
2023/05/10 04:08:05;;;;;;;56.70;17.67;;;;;;;;;;5052221;28;20033;-66
2023/05/10 04:10:31;;;;;;;52.40;18.17;;;;;;;;;;5051118;28;20032;-67
2023/05/10 04:12:56;;;;;;;51.03;17.10;;;;;;;;;;5050890;28;20135;-66
2023/05/10 04:15:22;;;;;;;51.30;18.08;;;;;;;;;;5049566;28;20123;-67
2023/05/10 04:17:47;;;;;;;51.00;16.95;;;;;;;;;;5050369;28;20472;-68
2023/05/10 04:20:13;;;;;;;50.45;16.95;;;;;;;;;;5051755;28;20458;-67
2023/05/10 04:22:38;;;;;;;52.28;17.20;;;;;;;;;;5055257;28;20456;-66
2023/05/10 04:25:04;;;;;;;53.53;16.80;;;;;;;;;;5071983;28;20043;-67
2023/05/10 04:27:30;;;;;;;55.03;16.88;;;;;;;;;;5069624;28;20036;-66
2023/05/10 04:29:56;;;;;;;51.85;16.65;;;;;;;;;;5072053;28;20036;-66
2023/05/10 04:32:21;;;;;;;59.83;17.52;;;;;;;;;;5066098;28;20037;-66
2023/05/10 04:34:47;;;;;;;67.38;18.52;;;;;;;;;;5058073;28;20123;-67
2023/05/10 04:37:12;;;;;;;66.70;19.98;;;;;;;;;;5067829;28;20033;-67
2023/05/10 04:39:38;;;;;;;62.78;19.45;;;;;;;;;;5069852;28;20072;-67
2023/05/10 04:42:05;;;;;;;67.65;20.95;;;;;;;;;;5070119;28;20093;-66
2023/05/10 04:44:31;;;;;;;66.72;20.58;;;;;;;;;;5070733;28;20040;-68
2023/05/10 04:46:56;;;;;;;68.05;21.73;;;;;;;;;;5071697;28;20419;-68
2023/05/10 04:49:22;;;;;;;73.38;22.50;;;;;;;;;;5070687;28;20043;-67
2023/05/10 04:51:47;;;;;;;81.03;23.50;;;;;;;;;;5071554;28;20051;-67
2023/05/10 04:54:13;;;;;;;85.95;24.65;;;;;;;;;;5051703;28;20033;-67
2023/05/10 04:56:38;;;;;;;91.40;25.50;;;;;;;;;;5050419;28;20156;-67
2023/05/10 04:59:04;;;;;;;100.25;27.10;;;;;;;;;;5054679;28;20051;-68
2023/05/10 05:01:29;;;;;;;91.68;27.05;;;;;;;;;;5054477;28;20029;-69
2023/05/10 05:03:54;;;;;;;95.43;26.42;;;;;;;;;;5070032;28;20025;-67
2023/05/10 05:06:24;;;;;;;100.40;27.23;;;;;;;;;;5074584;28;20128;-67
2023/05/10 05:08:50;;;;;;;103.03;28.52;;;;;;;;;;5075218;28;20039;-68
2023/05/10 05:11:15;;;;;;;104.13;28.77;;;;;;;;;;5074637;28;20036;-67
2023/05/10 05:13:40;;;;;;;90.32;27.85;;;;;;;;;;5073165;28;20059;-67
2023/05/10 05:16:06;;;;;;;94.35;27.13;;;;;;;;;;5074975;28;20032;-67
2023/05/10 05:18:31;;;;;;;92.70;27.90;;;;;;;;;;5074158;28;20028;-67
2023/05/10 05:20:57;;;;;;;83.97;27.13;;;;;;;;;;5074854;28;20458;-67
2023/05/10 05:23:24;;;;;;;86.70;28.05;;;;;;;;;;5071284;28;20063;-67
2023/05/10 05:25:51;;;;;;;92.18;27.92;;;;;;;;;;5074767;28;20032;-67
2023/05/10 05:28:17;;;;;;;86.50;26.85;;;;;;;;;;5074595;28;20071;-66
2023/05/10 05:30:42;;;;;;;85.07;27.95;;;;;;;;;;5073208;28;20060;-67
2023/05/10 05:33:07;;;;;;;83.10;27.00;;;;;;;;;;5074734;28;20115;-67
2023/05/10 05:35:33;;;;;;;93.65;28.33;;;;;;;;;;5073839;28;20024;-66
2023/05/10 05:37:58;;;;;;;81.55;26.67;;;;;;;;;;5074617;28;20492;-67
2023/05/10 05:40:24;;;;;;;92.38;28.67;;;;;;;;;;5072572;28;20031;-67
2023/05/10 05:42:49;;;;;;;94.75;28.05;;;;;;;;;;5074545;28;20492;-67
2023/05/10 05:45:15;;;;;;;89.35;27.80;;;;;;;;;;5074853;28;20020;-66
2023/05/10 05:47:41;;;;;;;89.20;27.85;;;;;;;;;;5073549;28;20784;-67
2023/05/10 05:50:06;;;;;;;95.55;29.42;;;;;;;;;;5070902;28;20135;-66
2023/05/10 05:52:32;;;;;;;83.47;28.08;;;;;;;;;;5053563;28;20463;-68
2023/05/10 05:54:57;;;;;;;81.13;26.90;;;;;;;;;;5053051;28;20031;-66
2023/05/10 05:57:23;;;;;;;80.28;27.20;;;;;;;;;;5053333;28;20428;-66
2023/05/10 05:59:48;;;;;;;91.78;27.95;;;;;;;;;;5054200;28;20033;-64
2023/05/10 06:02:14;;;;;;;85.15;28.02;;;;;;;;;;5053861;28;20389;-66
2023/05/10 06:04:39;;;;;;;88.22;27.15;;;;;;;;;;5073078;28;20045;-68
2023/05/10 06:07:05;;;;;;;85.50;26.58;;;;;;;;;;5073744;28;20024;-68
2023/05/10 06:09:30;;;;;;;78.28;25.58;;;;;;;;;;5073080;28;20024;-67
2023/05/10 06:11:56;;;;;;;90.50;29.15;;;;;;;;;;5072926;28;20036;-68
2023/05/10 06:14:21;;;;;;;85.13;27.20;;;;;;;;;;5072188;28;20058;-65
2023/05/10 06:16:47;;;;;;;79.40;27.25;;;;;;;;;;5073630;28;20020;-67
2023/05/10 06:19:12;;;;;;;88.30;29.33;;;;;;;;;;5070253;28;20037;-67
2023/05/10 06:21:38;;;;;;;86.93;29.33;;;;;;;;;;5073022;28;20028;-68
2023/05/10 06:24:03;;;;;;;92.43;29.50;;;;;;;;;;5073688;28;20492;-66
2023/05/10 06:26:29;;;;;;;81.38;29.08;;;;;;;;;;5072661;28;20033;-66
2023/05/10 06:28:54;;;;;;;86.03;29.25;;;;;;;;;;5072270;28;20461;-67
2023/05/10 06:31:20;;;;;;;89.75;28.58;;;;;;;;;;5071161;28;20033;-67
2023/05/10 06:33:46;;;;;;;88.82;27.92;;;;;;;;;;5072531;28;20032;-68
2023/05/10 06:36:11;;;;;;;82.18;28.75;;;;;;;;;;5073406;28;20116;-68
2023/05/10 06:38:37;;;;;;;79.70;27.58;;;;;;;;;;5071696;28;20045;-68
2023/05/10 06:41:02;;;;;;;77.82;27.35;;;;;;;;;;5072140;28;20075;-69
2023/05/10 06:43:28;;;;;;;68.28;26.50;;;;;;;;;;5072880;28;20028;-68
2023/05/10 06:45:54;;;;;;;66.25;26.50;;;;;;;;;;5073324;28;20059;-69
2023/05/10 06:48:19;;;;;;;65.13;25.02;;;;;;;;;;5073229;28;20381;-72
2023/05/10 06:50:45;;;;;;;63.05;24.92;;;;;;;;;;5052812;28;20033;-66
2023/05/10 06:53:11;;;;;;;64.68;25.38;;;;;;;;;;5053306;28;20523;-66
2023/05/10 06:55:36;;;;;;;67.85;25.80;;;;;;;;;;5052157;28;20033;-67
2023/05/10 06:58:02;;;;;;;57.15;24.45;;;;;;;;;;5053198;28;20082;-66
2023/05/10 07:00:27;;;;;;;61.67;25.30;;;;;;;;;;5051835;28;20036;-65
2023/05/10 07:02:53;;;;;;;63.40;27.38;;;;;;;;;;5053177;28;20029;-65
2023/05/10 07:05:18;;;;;;;67.25;28.60;;;;;;;;;;5062516;28;20425;-64
2023/05/10 07:07:44;;;;;;;68.57;26.50;;;;;;;;;;5071984;28;20107;-65
2023/05/10 07:10:09;;;;;;;57.33;26.13;;;;;;;;;;5071717;28;20029;-66
2023/05/10 07:12:35;;;;;;;58.40;26.25;;;;;;;;;;5070796;28;20063;-66
2023/05/10 07:15:00;;;;;;;61.03;26.40;;;;;;;;;;5071500;28;20428;-67
2023/05/10 07:17:25;;;;;;;58.65;25.30;;;;;;;;;;5072025;28;20039;-66
2023/05/10 07:19:51;;;;;;;59.20;25.58;;;;;;;;;;5072396;28;20029;-66
2023/05/10 07:22:17;;;;;;;50.60;24.13;;;;;;;;;;5072008;28;20028;-66
2023/05/10 07:24:42;;;;;;;49.90;23.52;;;;;;;;;;5069540;28;20679;-66
2023/05/10 07:27:08;;;;;;;45.13;20.05;;;;;;;;;;5061908;28;20033;-66
2023/05/10 07:29:34;;;;;;;44.67;21.75;;;;;;;;;;5051772;28;20037;-66
2023/05/10 07:32:00;;;;;;;46.10;22.70;;;;;;;;;;5052401;28;20033;-66
2023/05/10 07:34:25;;;;;;;49.75;23.23;;;;;;;;;;5086958;28;20025;-65
2023/05/10 07:36:51;;;;;;;41.97;22.17;;;;;;;;;;5064582;28;20033;-66
2023/05/10 07:39:16;;;;;;;43.40;22.25;;;;;;;;;;5052435;28;20046;-65
2023/05/10 07:41:42;;;;;;;40.40;21.35;;;;;;;;;;5051325;28;20068;-65
2023/05/10 07:44:07;;;;;;;40.60;20.48;;;;;;;;;;5051992;28;20025;-65
2023/05/10 07:46:33;;;;;;;39.70;21.88;;;;;;;;;;5071480;28;20024;-66
2023/05/10 07:48:58;;;;;;;38.72;19.58;;;;;;;;;;5071863;28;20082;-66
2023/05/10 07:51:23;;;;;;;35.00;18.70;;;;;;;;;;5072048;28;20028;-65
2023/05/10 07:53:49;;;;;;;39.15;20.60;;;;;;;;;;5071372;28;20099;-65
2023/05/10 07:56:27;;;;;;;43.10;22.00;;;;;;;;;;5069618;28;20040;-65
2023/05/10 07:58:53;;;;;;;42.75;21.17;;;;;;;;;;5071588;28;20099;-66
2023/05/10 08:01:19;;;;;;;42.25;21.55;;;;;;;;;;5071968;28;20047;-66
2023/05/10 08:03:45;;;;;;;42.08;21.42;;;;;;;;;;5070163;28;20865;-64
2023/05/10 08:06:10;;;;;;;40.63;19.63;;;;;;;;;;5066119;28;20025;-63
2023/05/10 08:08:36;;;;;;;43.22;21.58;;;;;;;;;;5062967;28;20052;-62
2023/05/10 08:11:01;;;;;;;38.00;20.60;;;;;;;;;;5051987;28;20035;-62
2023/05/10 08:13:27;;;;;;;37.05;19.95;;;;;;;;;;5051577;28;20047;-63
2023/05/10 08:15:53;;;;;;;35.38;20.05;;;;;;;;;;5050150;28;20036;-62
2023/05/10 08:18:19;;;;;;;38.03;20.27;;;;;;;;;;5053642;28;20084;-62
2023/05/10 08:20:44;;;;;;;33.72;18.75;;;;;;;;;;5050601;28;20033;-64
2023/05/10 08:23:09;;;;;;;32.97;18.60;;;;;;;;;;5051655;28;20489;-61
2023/05/10 08:25:35;;;;;;;36.42;19.77;;;;;;;;;;5064542;28;20052;-62
2023/05/10 08:28:00;;;;;;;36.90;19.90;;;;;;;;;;5070335;28;20033;-62
2023/05/10 08:30:26;;;;;;;34.90;19.00;;;;;;;;;;5068540;28;20051;-62
2023/05/10 08:32:51;;;;;;;33.85;19.30;;;;;;;;;;5072150;28;20029;-62
2023/05/10 08:35:16;;;;;;;31.40;19.15;;;;;;;;;;5075738;28;20083;-62
2023/05/10 08:37:42;;;;;;;32.08;17.30;;;;;;;;;;5074761;28;20052;-63
2023/05/10 08:40:10;;;;;;;29.85;18.70;;;;;;;;;;5074721;28;20465;-63
2023/05/10 08:42:40;;;;;;;28.98;16.52;;;;;;;;;;5068670;28;20144;-63
2023/05/10 08:45:10;;;;;;;35.08;18.30;;;;;;;;;;5055357;28;20053;-64
2023/05/10 08:47:37;;;;;;;30.45;17.02;;;;;;;;;;5055009;28;20065;-63
2023/05/10 08:50:03;;;;;;;34.08;17.92;;;;;;;;;;5055649;28;20461;-63
2023/05/10 08:52:31;;;;;;;33.03;18.23;;;;;;;;;;5075197;28;20048;-63
2023/05/10 08:54:56;;;;;;;31.02;18.67;;;;;;;;;;5075030;28;20518;-63
2023/05/10 08:57:22;;;;;;;39.40;21.75;;;;;;;;;;5075278;28;20040;-63
2023/05/10 08:59:48;;;;;;;39.70;18.52;;;;;;;;;;5074501;28;20060;-63
2023/05/10 09:02:13;;;;;;;38.03;19.60;;;;;;;;;;5071377;28;20146;-63
2023/05/10 09:04:39;;;;;;;38.25;19.33;;;;;;;;;;5074083;28;20470;-63
2023/05/10 09:07:05;;;;;;;36.88;19.85;;;;;;;;;;5075033;28;20028;-64
2023/05/10 09:09:31;;;;;;;36.75;20.00;;;;;;;;;;5073373;28;20031;-63
2023/05/10 09:11:56;;;;;;;39.67;21.85;;;;;;;;;;5057355;28;20112;-64
2023/05/10 09:14:24;;;;;;;42.83;22.80;;;;;;;;;;5054833;28;20349;-63
2023/05/10 09:16:50;;;;;;;43.58;23.73;;;;;;;;;;5052996;28;20086;-63
2023/05/10 09:19:15;;;;;;;36.63;19.17;;;;;;;;;;5054895;28;20029;-63
2023/05/10 09:21:41;;;;;;;33.42;18.48;;;;;;;;;;5065497;28;20036;-63
2023/05/10 09:24:07;;;;;;;30.85;16.67;;;;;;;;;;5074824;28;20051;-64
2023/05/10 09:26:35;;;;;;;29.77;16.48;;;;;;;;;;5074225;28;20492;-63
2023/05/10 09:29:02;;;;;;;25.85;14.73;;;;;;;;;;5074563;28;20039;-63
2023/05/10 09:31:50;;;;;;;26.60;15.55;;;;;;;;;;5073012;28;20037;-63
2023/05/10 09:34:20;;;;;;;26.17;15.05;;;;;;;;;;5074638;28;20119;-63
2023/05/10 09:37:04;;;;;;;27.63;16.25;;;;;;;;;;5073523;28;20128;-63
2023/05/10 09:39:31;;;;;;;25.63;15.10;;;;;;;;;;5074542;28;20067;-63
2023/05/10 09:41:59;;;;;;;29.80;15.73;;;;;;;;;;5057613;28;20047;-63
2023/05/10 09:44:25;;;;;;;30.98;17.77;;;;;;;;;;5053470;28;20041;-63
2023/05/10 09:46:52;;;;;;;28.63;16.70;;;;;;;;;;5053372;28;20513;-64
2023/05/10 09:49:19;;;;;;;26.17;16.63;;;;;;;;;;5052988;28;20099;-64
2023/05/10 09:51:45;;;;;;;28.13;16.60;;;;;;;;;;5053059;28;20124;-64
2023/05/10 09:54:11;;;;;;;26.25;14.50;;;;;;;;;;5054389;28;20107;-63
2023/05/10 09:56:39;;;;;;;24.35;13.15;;;;;;;;;;5053491;28;20506;-63
2023/05/10 09:59:06;;;;;;;23.77;13.38;;;;;;;;;;5054135;28;20116;-63
2023/05/10 10:01:31;;;;;;;24.88;13.55;;;;;;;;;;5053349;28;20029;-63
2023/05/10 10:03:58;;;;;;;22.33;13.75;;;;;;;;;;5068524;28;20102;-64
2023/05/10 10:06:24;;;;;;;22.73;12.73;;;;;;;;;;5054255;28;20113;-63
2023/05/10 10:08:51;;;;;;;20.63;12.15;;;;;;;;;;5053975;28;20083;-63
2023/05/10 10:11:16;;;;;;;25.92;13.85;;;;;;;;;;5062578;28;20041;-63
2023/05/10 10:13:42;;;;;;;25.35;15.13;;;;;;;;;;5069957;28;20439;-63
2023/05/10 10:16:09;;;;;;;24.70;14.07;;;;;;;;;;5053955;28;20036;-64
2023/05/10 10:18:38;;;;;;;26.88;13.68;;;;;;;;;;5053302;28;20025;-63
2023/05/10 10:21:08;;;;;;;29.15;15.63;;;;;;;;;;5053347;28;20033;-64
2023/05/10 10:23:34;;;;;;;34.42;18.23;;;;;;;;;;5053807;28;20021;-63
2023/05/10 10:26:01;;;;;;;36.35;19.05;;;;;;;;;;5070510;28;20097;-61
2023/05/10 10:29:08;;;;;;;39.55;21.15;;;;;;;;;;5073609;28;20047;-62
2023/05/10 10:31:44;;;;;;;35.78;20.20;;;;;;;;;;5053245;28;20091;-63
2023/05/10 10:34:16;;;;;;;37.35;20.65;;;;;;;;;;5056446;28;20032;-63
2023/05/10 10:36:46;;;;;;;43.60;20.67;;;;;;;;;;5054549;28;20029;-62
2023/05/10 10:39:13;;;;;;;34.47;17.17;;;;;;;;;;5073180;28;20029;-62
2023/05/10 10:41:48;;;;;;;33.60;17.58;;;;;;;;;;5072493;28;20261;-62
2023/05/10 10:44:25;;;;;;;34.33;18.00;;;;;;;;;;5068002;28;20462;-63
2023/05/10 10:47:01;;;;;;;35.92;18.77;;;;;;;;;;5058745;28;20473;-62
2023/05/10 10:49:26;;;;;;;26.63;15.45;;;;;;;;;;5073124;28;20036;-63
2023/05/10 10:52:31;;;;;;;30.15;16.67;;;;;;;;;;5072430;28;20342;-63
2023/05/10 10:55:02;;;;;;;27.23;14.48;;;;;;;;;;5069161;28;20230;-63
2023/05/10 10:57:30;;;;;;;27.33;14.32;;;;;;;;;;5073080;28;20107;-63
2023/05/10 11:00:26;;;;;;;21.20;11.18;;;;;;;;;;5071918;28;20098;-63
2023/05/10 11:02:52;;;;;;;23.08;12.75;;;;;;;;;;5072145;28;20059;-64
2023/05/10 11:05:25;;;;;;;25.20;12.60;;;;;;;;;;5058561;28;20087;-64
2023/05/10 11:07:54;;;;;;;21.35;11.98;;;;;;;;;;5052129;28;20177;-64
2023/05/10 11:10:23;;;;;;;27.10;13.43;;;;;;;;;;5052917;28;20116;-64
2023/05/10 11:13:08;;;;;;;25.52;15.70;;;;;;;;;;5052122;28;20492;-66
2023/05/10 11:15:38;;;;;;;29.33;17.08;;;;;;;;;;5066393;28;20098;-65
2023/05/10 11:18:20;;;;;;;31.52;18.73;;;;;;;;;;5072491;28;20024;-65
2023/05/10 11:20:59;;;;;;;31.27;19.15;;;;;;;;;;5071783;28;20385;-65
2023/05/10 11:23:43;;;;;;;33.50;19.52;;;;;;;;;;5069742;28;20040;-66
2023/05/10 11:26:09;;;;;;;29.13;16.92;;;;;;;;;;5072814;28;20036;-66
2023/05/10 11:28:40;;;;;;;28.95;16.77;;;;;;;;;;5072184;28;20040;-64
2023/05/10 11:31:06;;;;;;;24.63;13.70;;;;;;;;;;5065755;28;20056;-66
2023/05/10 11:33:50;;;;;;;26.40;14.32;;;;;;;;;;5052218;28;20025;-64
2023/05/10 11:36:27;;;;;;;23.63;13.18;;;;;;;;;;5052266;28;20527;-64
2023/05/10 11:38:54;;;;;;;25.00;14.18;;;;;;;;;;5051285;28;20079;-63
2023/05/10 11:41:23;;;;;;;25.17;13.85;;;;;;;;;;5052898;28;20033;-63
2023/05/10 11:43:53;;;;;;;25.00;12.48;;;;;;;;;;5071248;28;20081;-62
2023/05/10 11:46:21;;;;;;;22.60;12.93;;;;;;;;;;5071971;28;20481;-63
2023/05/10 11:48:51;;;;;;;20.25;11.13;;;;;;;;;;5071315;28;20037;-64
2023/05/10 11:51:21;;;;;;;17.53;10.27;;;;;;;;;;5069541;28;20468;-63
2023/05/10 11:53:46;;;;;;;17.45;10.65;;;;;;;;;;5071057;28;20115;-63
2023/05/10 11:56:11;;;;;;;19.13;11.00;;;;;;;;;;5071802;28;20107;-64
2023/05/10 11:58:38;;;;;;;16.70;9.32;;;;;;;;;;5072081;28;20120;-64
2023/05/10 12:01:05;;;;;;;15.57;8.43;;;;;;;;;;5068178;28;20107;-64
2023/05/10 12:03:31;;;;;;;15.02;8.85;;;;;;;;;;5052014;28;20041;-63
2023/05/10 12:05:58;;;;;;;18.55;9.50;;;;;;;;;;5051134;28;20029;-64
2023/05/10 12:08:26;;;;;;;13.00;8.18;;;;;;;;;;5052058;28;20028;-63
2023/05/10 12:10:52;;;;;;;13.48;7.90;;;;;;;;;;5050499;28;20102;-62
2023/05/10 12:13:20;;;;;;;15.00;9.05;;;;;;;;;;5051138;28;20057;-63
2023/05/10 12:15:45;;;;;;;13.07;7.25;;;;;;;;;;5050894;28;20025;-63
2023/05/10 12:18:12;;;;;;;14.05;8.80;;;;;;;;;;5051820;28;20029;-64
2023/05/10 12:20:38;;;;;;;17.23;8.93;;;;;;;;;;5051681;28;20036;-64
2023/05/10 12:23:05;;;;;;;17.30;9.95;;;;;;;;;;5052303;28;20526;-64
2023/05/10 12:25:33;;;;;;;15.32;10.32;;;;;;;;;;5051653;28;20033;-63
2023/05/10 12:28:02;;;;;;;14.23;9.90;;;;;;;;;;5050698;28;20112;-63
2023/05/10 12:30:30;;;;;;;16.50;9.73;;;;;;;;;;5051558;28;20033;-64
2023/05/10 12:33:07;;;;;;;16.65;9.60;;;;;;;;;;5050403;28;20583;-63
2023/05/10 12:35:33;;;;;;;18.10;10.43;;;;;;;;;;5051228;28;20375;-64
2023/05/10 12:37:58;;;;;;;19.85;10.00;;;;;;;;;;5050440;28;20067;-64
2023/05/10 12:40:24;;;;;;;18.30;10.77;;;;;;;;;;5051546;28;20033;-64
2023/05/10 12:42:50;;;;;;;18.83;10.23;;;;;;;;;;5065743;28;20028;-63
2023/05/10 12:45:17;;;;;;;16.67;10.60;;;;;;;;;;5069852;28;20037;-63
2023/05/10 12:47:43;;;;;;;19.48;11.48;;;;;;;;;;5071286;28;20033;-63
2023/05/10 12:50:09;;;;;;;20.73;11.85;;;;;;;;;;5069741;28;20039;-63
2023/05/10 12:52:35;;;;;;;20.63;12.48;;;;;;;;;;5067720;28;20124;-63
2023/05/10 12:55:01;;;;;;;21.30;12.27;;;;;;;;;;5069791;28;20107;-64
2023/05/10 12:57:27;;;;;;;18.77;12.50;;;;;;;;;;5071417;28;20028;-65
2023/05/10 12:59:52;;;;;;;18.38;12.48;;;;;;;;;;5070525;28;20047;-64
2023/05/10 13:02:18;;;;;;;21.45;12.55;;;;;;;;;;5055000;28;20033;-65
2023/05/10 13:04:44;;;;;;;21.48;12.35;;;;;;;;;;5051219;28;20029;-65
2023/05/10 13:07:10;;;;;;;17.23;11.52;;;;;;;;;;5050936;28;20079;-64
2023/05/10 13:09:35;;;;;;;19.58;12.52;;;;;;;;;;5051100;28;20032;-63
2023/05/10 13:12:01;;;;;;;18.98;11.18;;;;;;;;;;5051204;28;20530;-65
2023/05/10 13:14:27;;;;;;;19.38;11.32;;;;;;;;;;5062360;28;20036;-63
2023/05/10 13:16:53;;;;;;;19.98;12.95;;;;;;;;;;5070473;28;20103;-65
2023/05/10 13:19:18;;;;;;;20.73;12.15;;;;;;;;;;5073148;28;20473;-64
2023/05/10 13:21:44;;;;;;;24.42;12.40;;;;;;;;;;5073473;28;20051;-64
2023/05/10 13:24:10;;;;;;;18.80;11.75;;;;;;;;;;5072995;28;20509;-64
2023/05/10 13:26:36;;;;;;;15.75;11.75;;;;;;;;;;5074938;28;20036;-64
2023/05/10 13:29:02;;;;;;;19.75;12.50;;;;;;;;;;5074004;28;20155;-64
2023/05/10 13:31:27;;;;;;;19.23;12.13;;;;;;;;;;5066347;28;20033;-64
2023/05/10 13:33:53;;;;;;;19.35;11.98;;;;;;;;;;5053263;28;20447;-63
2023/05/10 13:36:18;;;;;;;15.20;10.60;;;;;;;;;;5065973;28;20025;-64
2023/05/10 13:38:44;;;;;;;15.25;10.15;;;;;;;;;;5074849;28;20099;-64
2023/05/10 13:41:10;;;;;;;16.27;10.40;;;;;;;;;;5071152;28;20413;-64
2023/05/10 13:43:35;;;;;;;13.32;10.43;;;;;;;;;;5074587;28;20032;-64
2023/05/10 13:46:01;;;;;;;16.25;11.57;;;;;;;;;;5072099;28;20117;-63
2023/05/10 13:48:27;;;;;;;15.30;10.57;;;;;;;;;;5061882;28;20068;-64
2023/05/10 13:50:52;;;;;;;15.70;9.15;;;;;;;;;;5053479;28;20096;-63
2023/05/10 13:53:18;;;;;;;12.48;9.18;;;;;;;;;;5054327;28;20040;-65
2023/05/10 13:55:43;;;;;;;15.55;9.43;;;;;;;;;;5054433;28;20033;-64
2023/05/10 13:58:09;;;;;;;13.35;8.93;;;;;;;;;;5052869;28;20027;-64
2023/05/10 14:00:34;;;;;;;11.13;7.93;;;;;;;;;;5064672;28;20059;-63
2023/05/10 14:03:00;;;;;;;12.60;7.30;;;;;;;;;;5071413;28;20037;-65
2023/05/10 14:05:25;;;;;;;9.43;6.40;;;;;;;;;;5064432;28;20047;-63
2023/05/10 14:07:51;;;;;;;9.07;6.30;;;;;;;;;;5053197;28;20033;-62
2023/05/10 14:10:16;;;;;;;11.00;5.97;;;;;;;;;;5036098;28;20037;-63
2023/05/10 14:12:42;;;;;;;9.88;6.00;;;;;;;;;;5036325;28;20033;-65
2023/05/10 14:15:07;;;;;;;12.43;5.70;;;;;;;;;;5056247;28;20636;-64
2023/05/10 14:17:33;;;;;;;8.18;5.50;;;;;;;;;;5071897;28;20032;-65
2023/05/10 14:19:58;;;;;;;7.97;5.63;;;;;;;;;;5073140;28;20453;-65
2023/05/10 14:22:24;;;;;;;9.52;5.57;;;;;;;;;;5073474;28;20032;-63
2023/05/10 14:24:49;;;;;;;8.25;5.20;;;;;;;;;;5070048;28;20137;-64
2023/05/10 14:27:15;;;;;;;9.10;5.22;;;;;;;;;;5053051;28;20110;-63
2023/05/10 14:29:41;;;;;;;8.93;5.35;;;;;;;;;;5051829;28;20178;-63